Time;durP1;ratioP1;P1;durP2;ratioP2;P2;SDS_P1;SDS_P2;PMS_P1;PMS_P2;Temp;Humidity;BMP_temperature;BMP_pressure;BME280_temperature;BME280_humidity;BME280_pressure;Samples;Min_cycle;Max_cycle;Signal;HPM_P1;HPM_P2
2022/10/28 00:02:11;;;;;;;13.35;6.55;;;14.70;99.90;;;;;;4968613;28;20042;-83
2022/10/28 00:04:36;;;;;;;17.42;6.75;;;14.70;99.90;;;;;;4985551;28;20044;-83
2022/10/28 00:07:02;;;;;;;15.55;6.88;;;14.70;99.90;;;;;;4975581;28;20050;-83
2022/10/28 00:09:28;;;;;;;15.10;6.70;;;14.70;99.90;;;;;;4980956;28;20030;-83
2022/10/28 00:11:54;;;;;;;15.52;6.97;;;14.70;99.90;;;;;;5006307;28;20042;-84
2022/10/28 00:14:19;;;;;;;15.82;7.32;;;14.70;99.90;;;;;;4957761;28;20064;-83
2022/10/28 00:16:45;;;;;;;15.85;6.78;;;14.70;99.90;;;;;;4969118;28;20038;-83
2022/10/28 00:19:12;;;;;;;16.08;7.10;;;14.70;99.90;;;;;;5003473;28;20104;-84
2022/10/28 00:21:39;;;;;;;18.27;7.40;;;14.70;99.90;;;;;;4988459;28;20099;-83
2022/10/28 00:24:07;;;;;;;17.83;7.32;;;14.70;99.90;;;;;;4972894;28;20082;-83
2022/10/28 00:26:35;;;;;;;16.83;7.43;;;15.70;99.90;;;;;;4990777;28;20046;-83
2022/10/28 00:29:10;;;;;;;19.73;7.63;;;14.80;99.90;;;;;;4991462;28;20046;-84
2022/10/28 00:31:37;;;;;;;16.10;7.30;;;14.80;99.90;;;;;;5001968;28;20065;-83
2022/10/28 00:34:05;;;;;;;14.80;6.95;;;14.90;99.90;;;;;;4990582;28;20381;-83
2022/10/28 00:36:33;;;;;;;16.25;6.95;;;14.90;99.90;;;;;;4988222;28;20437;-84
2022/10/28 00:39:00;;;;;;;18.13;7.82;;;14.90;99.90;;;;;;5006829;28;20042;-83
2022/10/28 00:41:29;;;;;;;19.30;7.45;;;14.90;99.90;;;;;;4990736;28;20100;-84
2022/10/28 00:44:00;;;;;;;14.90;6.97;;;14.90;99.90;;;;;;4990945;28;20044;-83
2022/10/28 00:46:44;;;;;;;16.80;7.15;;;14.90;99.90;;;;;;5004564;28;20038;-84
2022/10/28 00:49:15;;;;;;;17.85;7.57;;;14.90;99.90;;;;;;5004968;28;20041;-83
2022/10/28 00:51:42;;;;;;;21.77;7.97;;;14.90;99.90;;;;;;4988126;28;20038;-83
2022/10/28 00:54:09;;;;;;;15.55;7.20;;;15.00;99.90;;;;;;4977340;28;20033;-83
2022/10/28 00:56:42;;;;;;;16.02;7.80;;;15.00;99.90;;;;;;4975543;28;20141;-84
2022/10/28 00:59:17;;;;;;;16.42;8.32;;;15.00;99.90;;;;;;5007643;28;20045;-83
2022/10/28 01:01:42;;;;;;;17.58;7.57;;;15.00;99.90;;;;;;5005201;28;20117;-84
2022/10/28 01:04:09;;;;;;;20.33;7.45;;;14.90;99.90;;;;;;4975532;28;20225;-84
2022/10/28 01:06:34;;;;;;;16.30;6.97;;;15.00;99.90;;;;;;5001299;28;20085;-83
2022/10/28 01:09:00;;;;;;;17.02;8.23;;;15.00;99.90;;;;;;4989058;28;20037;-83
2022/10/28 01:11:39;;;;;;;16.63;7.85;;;15.00;99.90;;;;;;4974019;28;20765;-83
2022/10/28 01:14:25;;;;;;;16.15;8.00;;;15.00;99.90;;;;;;4988000;28;20442;-82
2022/10/28 01:17:10;;;;;;;16.38;7.97;;;15.10;99.90;;;;;;4982345;28;20443;-82
2022/10/28 01:19:57;;;;;;;17.92;7.50;;;15.10;99.90;;;;;;4994884;28;20499;-82
2022/10/28 01:22:28;;;;;;;20.30;8.15;;;15.10;99.90;;;;;;4988390;28;20507;-83
2022/10/28 01:25:14;;;;;;;15.70;7.63;;;15.10;99.90;;;;;;4990320;28;20046;-82
2022/10/28 01:28:04;;;;;;;13.88;7.20;;;15.10;99.90;;;;;;5006062;28;20038;-82
2022/10/28 01:31:12;;;;;;;17.00;7.57;;;15.10;99.90;;;;;;4990364;28;20042;-82
2022/10/28 01:33:45;;;;;;;16.05;7.38;;;15.10;99.90;;;;;;4975633;28;20581;-82
2022/10/28 01:36:20;;;;;;;14.27;7.63;;;15.00;99.90;;;;;;4982329;28;20058;-82
2022/10/28 01:38:57;;;;;;;14.52;7.18;;;15.00;99.90;;;;;;5010571;28;20046;-83
2022/10/28 01:41:58;;;;;;;15.80;7.93;;;15.00;99.90;;;;;;4993800;28;20529;-82
2022/10/28 01:44:40;;;;;;;17.05;7.55;;;15.00;99.90;;;;;;4971846;28;20065;-83
2022/10/28 01:47:11;;;;;;;19.67;7.43;;;14.90;99.90;;;;;;5005022;28;20070;-82
2022/10/28 01:49:45;;;;;;;16.83;7.63;;;14.80;99.90;;;;;;5006665;28;20297;-82
2022/10/28 01:52:15;;;;;;;17.80;7.93;;;14.80;99.90;;;;;;5007259;28;20121;-82
2022/10/28 01:54:46;;;;;;;17.13;7.68;;;14.80;99.90;;;;;;5007877;28;20046;-83
2022/10/28 01:57:16;;;;;;;16.10;7.60;;;14.70;99.90;;;;;;5011234;28;20045;-82
2022/10/28 01:59:43;;;;;;;22.10;8.00;;;14.70;99.90;;;;;;4979658;28;20091;-82
2022/10/28 02:02:09;;;;;;;16.02;7.60;;;14.70;99.90;;;;;;4981718;28;20041;-82
2022/10/28 02:04:34;;;;;;;20.17;8.00;;;14.70;99.90;;;;;;4989476;28;20030;-82
2022/10/28 02:07:00;;;;;;;17.02;7.47;;;14.60;99.90;;;;;;5014628;28;20168;-82
2022/10/28 02:09:35;;;;;;;16.80;7.60;;;14.60;99.90;;;;;;4978160;28;20038;-82
2022/10/28 02:12:25;;;;;;;17.10;7.93;;;14.60;99.90;;;;;;4994132;28;20484;-82
2022/10/28 02:15:26;;;;;;;16.77;7.85;;;14.50;99.90;;;;;;4991742;28;20570;-82
2022/10/28 02:18:14;;;;;;;14.07;7.40;;;14.50;99.90;;;;;;4991060;28;20057;-82
2022/10/28 02:20:52;;;;;;;16.90;8.45;;;14.40;99.90;;;;;;5008137;28;20400;-82
2022/10/28 02:23:46;;;;;;;15.90;8.05;;;14.40;99.90;;;;;;4992064;28;20507;-82
2022/10/28 02:26:40;;;;;;;16.33;7.65;;;14.30;99.90;;;;;;4986906;28;20567;-82
2022/10/28 02:29:35;;;;;;;15.88;7.40;;;14.30;99.90;;;;;;5002727;28;20124;-82
2022/10/28 02:32:05;;;;;;;19.40;8.00;;;14.30;99.90;;;;;;5000838;28;20054;-83
2022/10/28 02:34:34;;;;;;;18.55;8.70;;;14.20;99.90;;;;;;4993169;28;20446;-83
2022/10/28 02:37:04;;;;;;;17.60;8.23;;;14.20;99.90;;;;;;5011619;28;20068;-83
2022/10/28 02:39:35;;;;;;;19.10;8.57;;;14.20;99.90;;;;;;4990521;28;20070;-83
2022/10/28 02:42:16;;;;;;;21.23;9.40;;;14.10;99.90;;;;;;4986882;28;20065;-83
2022/10/28 02:44:48;;;;;;;22.05;9.70;;;14.10;99.90;;;;;;5008535;28;20129;-83
2022/10/28 02:47:18;;;;;;;18.73;9.03;;;14.10;99.90;;;;;;4994264;28;20130;-83
2022/10/28 02:49:49;;;;;;;21.75;9.65;;;14.10;99.90;;;;;;5007852;28;20092;-83
2022/10/28 02:52:18;;;;;;;19.60;9.30;;;14.10;99.90;;;;;;4993242;28;20109;-83
2022/10/28 02:54:54;;;;;;;18.35;9.40;;;14.10;99.90;;;;;;4992021;28;20038;-83
2022/10/28 02:57:23;;;;;;;17.27;8.82;;;14.10;99.90;;;;;;4993081;28;20132;-83
2022/10/28 02:59:56;;;;;;;21.58;10.02;;;14.10;99.90;;;;;;4970058;28;20038;-84
2022/10/28 03:02:23;;;;;;;18.27;10.20;;;14.10;99.90;;;;;;4987042;28;20343;-83
2022/10/28 03:04:49;;;;;;;16.77;10.13;;;14.00;99.90;;;;;;4976845;28;20049;-83
2022/10/28 03:07:14;;;;;;;18.33;9.57;;;14.00;99.90;;;;;;4993809;28;20037;-83
2022/10/28 03:09:40;;;;;;;22.40;9.70;;;14.00;99.90;;;;;;4984927;28;20045;-83
2022/10/28 03:12:06;;;;;;;18.30;10.07;;;13.90;99.90;;;;;;4985178;28;20048;-82
2022/10/28 03:14:31;;;;;;;15.80;9.30;;;13.90;99.90;;;;;;4990882;28;20100;-83
2022/10/28 03:16:57;;;;;;;21.90;10.13;;;13.80;99.90;;;;;;4975940;28;20033;-83
2022/10/28 03:19:23;;;;;;;17.42;8.10;;;13.80;99.90;;;;;;4976177;28;20038;-83
2022/10/28 03:21:49;;;;;;;18.40;8.73;;;13.70;99.90;;;;;;4987983;28;20041;-83
2022/10/28 03:24:15;;;;;;;17.65;8.95;;;13.70;99.90;;;;;;4996434;28;20042;-83
2022/10/28 03:26:40;;;;;;;19.00;8.75;;;13.70;99.90;;;;;;4991740;28;20558;-83
2022/10/28 03:29:06;;;;;;;20.50;8.25;;;13.60;99.90;;;;;;4976950;28;20100;-83
2022/10/28 03:31:32;;;;;;;19.10;8.55;;;13.60;99.90;;;;;;4975096;28;20072;-83
2022/10/28 03:33:57;;;;;;;15.02;8.75;;;13.50;99.90;;;;;;4973223;28;20479;-83
2022/10/28 03:36:23;;;;;;;18.05;8.38;;;13.50;99.90;;;;;;4965724;28;20058;-83
2022/10/28 03:38:49;;;;;;;19.02;8.63;;;13.40;99.90;;;;;;4989103;28;20526;-83
2022/10/28 03:41:15;;;;;;;23.02;9.25;;;13.40;99.90;;;;;;4992189;28;20112;-83
2022/10/28 03:43:40;;;;;;;16.45;8.70;;;13.60;99.90;;;;;;4990058;28;20522;-83
2022/10/28 03:46:06;;;;;;;21.08;10.50;;;13.40;99.90;;;;;;4972665;28;20038;-83
2022/10/28 03:48:32;;;;;;;21.40;9.73;;;13.40;99.90;;;;;;5008645;28;20564;-83
2022/10/28 03:50:57;;;;;;;22.92;10.25;;;13.40;99.90;;;;;;4969996;28;20034;-83
2022/10/28 03:53:23;;;;;;;22.67;10.35;;;13.40;99.90;;;;;;4990380;28;20037;-83
2022/10/28 03:55:53;;;;;;;25.63;10.80;;;13.40;99.90;;;;;;4988706;28;20133;-83
2022/10/28 03:58:19;;;;;;;23.45;10.82;;;13.40;99.90;;;;;;4989729;28;20052;-83
2022/10/28 04:00:51;;;;;;;19.90;9.52;;;13.40;99.90;;;;;;4991063;28;20038;-83
2022/10/28 04:03:18;;;;;;;20.50;10.30;;;13.40;99.90;;;;;;4991118;28;20089;-82
2022/10/28 04:05:44;;;;;;;20.38;11.23;;;13.40;99.90;;;;;;4992922;28;20041;-82
2022/10/28 04:08:10;;;;;;;23.23;11.05;;;13.40;99.90;;;;;;5006952;28;20076;-83
2022/10/28 04:10:36;;;;;;;23.20;10.60;;;13.40;99.90;;;;;;4968574;28;20491;-83
2022/10/28 04:13:03;;;;;;;27.00;10.60;;;13.40;99.90;;;;;;4988326;28;20060;-83
2022/10/28 04:15:29;;;;;;;19.23;10.63;;;13.40;99.90;;;;;;4988911;28;20040;-83
2022/10/28 04:17:56;;;;;;;19.15;10.50;;;13.60;99.90;;;;;;4992184;28;20038;-83
2022/10/28 04:20:22;;;;;;;21.85;11.38;;;13.40;99.90;;;;;;4989516;28;20052;-83
2022/10/28 04:22:48;;;;;;;23.95;11.05;;;13.30;99.90;;;;;;5007695;28;20038;-83
2022/10/28 04:25:13;;;;;;;21.77;11.65;;;13.40;99.90;;;;;;4969681;28;20054;-82
2022/10/28 04:27:39;;;;;;;20.92;11.30;;;13.40;99.90;;;;;;4972489;28;20034;-82
2022/10/28 04:30:05;;;;;;;21.67;11.45;;;13.50;99.90;;;;;;4986966;28;20073;-83
2022/10/28 04:32:31;;;;;;;20.80;11.02;;;13.40;99.90;;;;;;4989298;28;20386;-83
2022/10/28 04:34:57;;;;;;;20.80;11.05;;;13.40;99.90;;;;;;4984196;28;20073;-83
2022/10/28 04:37:23;;;;;;;20.27;10.88;;;13.40;99.90;;;;;;4985939;28;20097;-83
2022/10/28 04:39:49;;;;;;;19.48;10.68;;;13.40;99.90;;;;;;4972746;28;20437;-83
2022/10/28 04:42:15;;;;;;;20.80;10.63;;;12.70;99.90;;;;;;4980867;28;20038;-83
2022/10/28 04:44:41;;;;;;;16.98;10.18;;;13.30;99.90;;;;;;4971391;28;20053;-83
2022/10/28 04:47:07;;;;;;;22.02;10.38;;;13.30;99.90;;;;;;4988806;28;20045;-83
2022/10/28 04:49:32;;;;;;;22.02;11.00;;;13.30;99.90;;;;;;4991214;28;20038;-83
2022/10/28 04:51:58;;;;;;;19.10;10.80;;;13.20;99.90;;;;;;4965022;28;20184;-82
2022/10/28 04:54:24;;;;;;;24.35;11.20;;;13.40;99.90;;;;;;4980039;28;20069;-82
2022/10/28 04:56:49;;;;;;;23.73;11.52;;;13.30;99.90;;;;;;4990519;28;20041;-83
2022/10/28 04:59:15;;;;;;;25.30;11.73;;;13.30;99.90;;;;;;5007798;28;20495;-83
2022/10/28 05:01:40;;;;;;;21.55;11.70;;;13.30;99.90;;;;;;4986536;28;20506;-83
2022/10/28 05:04:06;;;;;;;26.50;12.52;;;13.30;99.90;;;;;;4983865;28;20042;-83
2022/10/28 05:06:32;;;;;;;22.80;11.77;;;13.30;99.90;;;;;;5002637;28;20038;-83
2022/10/28 05:08:57;;;;;;;21.73;11.32;;;13.30;99.90;;;;;;4988252;28;20033;-83
2022/10/28 05:11:23;;;;;;;21.85;11.50;;;13.50;99.90;;;;;;4986425;28;20048;-84
2022/10/28 05:13:51;;;;;;;20.73;11.05;;;13.40;99.90;;;;;;4975047;28;21365;-83
2022/10/28 05:16:17;;;;;;;20.58;11.88;;;13.40;99.90;;;;;;4970894;28;20037;-83
2022/10/28 05:18:43;;;;;;;24.17;10.95;;;13.40;99.90;;;;;;4978071;28;20037;-83
2022/10/28 05:21:08;;;;;;;22.88;11.38;;;13.50;99.90;;;;;;4978335;28;20054;-83
2022/10/28 05:23:34;;;;;;;20.98;11.05;;;13.40;99.90;;;;;;4975057;28;20522;-83
2022/10/28 05:26:00;;;;;;;20.35;10.95;;;13.50;99.90;;;;;;4991178;28;20095;-82
2022/10/28 05:28:26;;;;;;;19.13;11.00;;;13.50;99.90;;;;;;4991979;28;20121;-82
2022/10/28 05:30:51;;;;;;;18.13;10.35;;;13.50;99.90;;;;;;4992204;28;20042;-82
2022/10/28 05:33:17;;;;;;;20.45;10.30;;;13.50;99.90;;;;;;4993009;28;20121;-83
2022/10/28 05:35:43;;;;;;;20.65;10.45;;;13.50;99.90;;;;;;4995359;28;20046;-83
2022/10/28 05:38:09;;;;;;;22.42;10.80;;;13.50;99.90;;;;;;4991238;28;20442;-82
2022/10/28 05:40:35;;;;;;;18.98;10.23;;;13.50;99.90;;;;;;4978835;28;20113;-82
2022/10/28 05:43:01;;;;;;;17.75;9.90;;;13.50;99.90;;;;;;4975513;28;20038;-83
2022/10/28 05:45:27;;;;;;;22.98;10.82;;;13.50;99.90;;;;;;4975306;28;20038;-82
2022/10/28 05:47:53;;;;;;;20.38;10.43;;;13.50;99.90;;;;;;4975475;28;20431;-83
2022/10/28 05:50:20;;;;;;;19.30;9.73;;;13.50;99.90;;;;;;4993838;28;20038;-82
2022/10/28 05:52:50;;;;;;;21.45;10.40;;;13.50;99.90;;;;;;4973338;28;20117;-82
2022/10/28 05:55:21;;;;;;;18.05;10.27;;;13.50;99.90;;;;;;4966809;28;20043;-82
2022/10/28 05:57:48;;;;;;;21.88;10.80;;;13.50;99.90;;;;;;5009278;28;20046;-83
2022/10/28 06:00:15;;;;;;;19.77;10.00;;;13.50;99.90;;;;;;4976703;28;20050;-83
2022/10/28 06:02:41;;;;;;;17.95;10.30;;;13.50;99.90;;;;;;5009688;28;20041;-83
2022/10/28 06:05:09;;;;;;;20.77;10.68;;;13.50;99.90;;;;;;5020444;28;20533;-83
2022/10/28 06:07:35;;;;;;;20.05;10.70;;;13.50;99.90;;;;;;4997542;28;20077;-83
2022/10/28 06:10:02;;;;;;;22.77;10.23;;;13.50;99.90;;;;;;4994991;28;20044;-83
2022/10/28 06:12:27;;;;;;;18.80;10.35;;;13.50;99.90;;;;;;5008927;28;20052;-83
2022/10/28 06:14:53;;;;;;;20.58;9.85;;;13.60;99.90;;;;;;4971088;28;20116;-83
2022/10/28 06:17:19;;;;;;;20.25;10.43;;;13.60;99.90;;;;;;4990622;28;20061;-82
2022/10/28 06:19:44;;;;;;;20.98;10.77;;;13.60;99.90;;;;;;4972247;28;20049;-84
2022/10/28 06:22:11;;;;;;;20.63;9.32;;;13.60;99.90;;;;;;4987054;28;20068;-82
2022/10/28 06:24:36;;;;;;;20.73;10.10;;;13.60;99.90;;;;;;5008150;28;20530;-82
2022/10/28 06:27:02;;;;;;;25.92;10.07;;;13.70;99.90;;;;;;4970140;28;20046;-84
2022/10/28 06:29:28;;;;;;;20.38;10.15;;;13.50;99.90;;;;;;4991962;28;20076;-83
2022/10/28 06:31:54;;;;;;;17.38;9.35;;;13.60;99.90;;;;;;5000344;28;21241;-83
2022/10/28 06:34:19;;;;;;;18.75;9.77;;;13.60;99.90;;;;;;4979409;28;20124;-83
2022/10/28 06:36:45;;;;;;;19.52;9.85;;;13.60;99.90;;;;;;5009225;28;20057;-84
2022/10/28 06:39:11;;;;;;;19.27;10.40;;;13.60;99.90;;;;;;4971234;28;20072;-84
2022/10/28 06:41:36;;;;;;;19.98;9.73;;;13.60;99.90;;;;;;4974374;28;20062;-84
2022/10/28 06:44:04;;;;;;;17.85;9.68;;;13.60;99.90;;;;;;4987148;28;20092;-83
2022/10/28 06:46:33;;;;;;;16.77;9.27;;;13.60;99.90;;;;;;4990634;28;20045;-82
2022/10/28 06:49:01;;;;;;;17.42;9.35;;;13.60;99.90;;;;;;5007389;28;20431;-82
2022/10/28 06:51:28;;;;;;;21.23;10.27;;;13.60;99.90;;;;;;4973567;28;20042;-83
2022/10/28 06:53:54;;;;;;;22.65;9.98;;;13.60;99.90;;;;;;4974007;28;20061;-85
2022/10/28 06:56:19;;;;;;;19.65;9.70;;;13.60;99.90;;;;;;4985978;28;20416;-84
2022/10/28 06:58:49;;;;;;;17.80;10.00;;;13.60;99.90;;;;;;4990055;28;20046;-83
2022/10/28 07:01:15;;;;;;;19.45;9.57;;;13.60;99.90;;;;;;4991105;28;20095;-83
2022/10/28 07:03:41;;;;;;;24.63;10.07;;;13.60;99.90;;;;;;4959970;28;20045;-84
2022/10/28 07:06:07;;;;;;;17.15;9.50;;;13.60;99.90;;;;;;4958807;28;20038;-83
2022/10/28 07:08:33;;;;;;;16.17;9.43;;;;;;;;;;4993543;28;20045;-83
2022/10/28 07:10:59;;;;;;;19.80;9.40;;;13.70;99.90;;;;;;4989170;28;20030;-83
2022/10/28 07:13:25;;;;;;;20.15;9.23;;;13.70;99.90;;;;;;4990415;28;20033;-83
2022/10/28 07:15:56;;;;;;;19.77;10.32;;;13.80;99.90;;;;;;4990039;28;20687;-84
2022/10/28 07:18:23;;;;;;;19.80;8.88;;;13.80;99.90;;;;;;4988486;28;20041;-84
2022/10/28 07:20:49;;;;;;;17.73;9.68;;;13.90;99.90;;;;;;4970473;28;20147;-83
2022/10/28 07:23:15;;;;;;;19.20;9.30;;;13.90;99.90;;;;;;4992554;28;20072;-83
2022/10/28 07:25:41;;;;;;;17.67;9.18;;;14.00;99.90;;;;;;4956550;28;20136;-84
2022/10/28 07:28:07;;;;;;;18.92;8.95;;;14.10;99.90;;;;;;4989728;28;20049;-82
2022/10/28 07:30:33;;;;;;;18.45;9.50;;;14.10;99.90;;;;;;4986358;28;20033;-82
2022/10/28 07:33:00;;;;;;;19.33;9.68;;;14.20;99.90;;;;;;4989959;28;20044;-83
2022/10/28 07:35:29;;;;;;;17.60;8.73;;;14.20;99.90;;;;;;5001995;28;20054;-83
2022/10/28 07:37:56;;;;;;;20.50;10.02;;;14.30;99.90;;;;;;4970412;28;20045;-84
2022/10/28 07:40:23;;;;;;;19.05;8.68;;;14.30;99.90;;;;;;4975218;28;20049;-83
2022/10/28 07:42:49;;;;;;;16.90;8.38;;;14.30;99.90;;;;;;4992723;28;20042;-83
2022/10/28 07:45:15;;;;;;;19.35;8.63;;;14.40;99.90;;;;;;4990837;28;20061;-83
2022/10/28 07:47:41;;;;;;;16.70;8.80;;;14.50;99.90;;;;;;4985095;28;20042;-85
2022/10/28 07:50:07;;;;;;;20.95;9.13;;;14.60;99.90;;;;;;4971513;28;20038;-84
2022/10/28 07:52:36;;;;;;;18.63;9.15;;;14.60;99.90;;;;;;4984912;28;20038;-83
2022/10/28 07:55:04;;;;;;;20.83;9.45;;;14.70;99.90;;;;;;4986939;28;20641;-83
2022/10/28 07:57:30;;;;;;;20.45;8.52;;;14.70;99.90;;;;;;4977797;28;20037;-83
2022/10/28 07:59:56;;;;;;;16.17;8.63;;;14.80;99.90;;;;;;4970392;28;20065;-84
2022/10/28 08:02:23;;;;;;;20.80;8.70;;;14.90;99.90;;;;;;4988527;28;20140;-83
2022/10/28 08:04:49;;;;;;;18.25;8.13;;;14.90;99.90;;;;;;5000279;28;20045;-83
2022/10/28 08:07:16;;;;;;;17.15;8.27;;;15.00;99.90;;;;;;4983112;28;20121;-85
2022/10/28 08:09:43;;;;;;;15.10;8.15;;;15.10;99.90;;;;;;4982195;28;20054;-84
2022/10/28 08:12:11;;;;;;;15.90;8.00;;;15.10;99.90;;;;;;4988639;28;20073;-84
2022/10/28 08:14:37;;;;;;;20.05;8.18;;;15.20;99.90;;;;;;4985649;28;20053;-83
2022/10/28 08:17:03;;;;;;;18.70;8.45;;;15.20;99.90;;;;;;5006079;28;20498;-85
2022/10/28 08:19:28;;;;;;;21.77;8.57;;;15.30;99.90;;;;;;4974051;28;20042;-83
2022/10/28 08:21:55;;;;;;;17.42;7.63;;;15.40;99.90;;;;;;4968864;28;20129;-83
2022/10/28 08:24:20;;;;;;;15.68;7.10;;;15.40;99.90;;;;;;4989854;28;20086;-83
2022/10/28 08:26:46;;;;;;;15.43;7.53;;;15.50;99.90;;;;;;4972324;28;20065;-82
2022/10/28 08:29:12;;;;;;;16.35;7.07;;;15.60;99.90;;;;;;4975447;28;20037;-85
2022/10/28 08:31:38;;;;;;;20.27;7.72;;;15.60;99.90;;;;;;4990271;28;20030;-86
2022/10/28 08:34:05;;;;;;;16.98;7.22;;;15.70;99.90;;;;;;4984266;28;20115;-85
2022/10/28 08:36:30;;;;;;;13.32;6.53;;;15.80;99.90;;;;;;4972560;28;20069;-83
2022/10/28 08:38:59;;;;;;;16.67;7.43;;;15.80;99.90;;;;;;4993773;28;20495;-83
2022/10/28 08:41:36;;;;;;;16.08;7.05;;;15.90;99.90;;;;;;5006217;28;20045;-83
2022/10/28 08:44:29;;;;;;;13.48;6.68;;;16.00;99.90;;;;;;4990750;28;20044;-83
2022/10/28 08:47:04;;;;;;;;;;;16.20;99.90;;;;;;4975764;28;20096;-85
2022/10/28 08:49:33;;;;;;;17.02;6.13;;;16.20;99.90;;;;;;5005347;28;20333;-83
2022/10/28 08:52:04;;;;;;;17.92;7.00;;;16.30;99.90;;;;;;4988440;28;20033;-83
2022/10/28 08:54:33;;;;;;;17.85;6.68;;;16.40;99.90;;;;;;4986960;28;20044;-84
2022/10/28 08:57:01;;;;;;;18.38;6.63;;;16.50;99.90;;;;;;5003133;28;20048;-83
2022/10/28 08:59:32;;;;;;;14.45;5.95;;;16.60;99.90;;;;;;4997705;28;20049;-84
2022/10/28 09:02:21;;;;;;;15.18;5.80;;;16.70;99.90;;;;;;4987005;28;20040;-86
2022/10/28 09:05:17;;;;;;;16.38;6.15;;;16.80;99.90;;;;;;4984795;28;20825;-84
2022/10/28 09:07:43;;;;;;;13.48;5.70;;;16.80;99.90;;;;;;4973386;28;20051;-83
2022/10/28 09:10:12;;;;;;;15.23;5.95;;;16.90;99.90;;;;;;4997108;28;20121;-83
2022/10/28 09:13:02;;;;;;;16.50;5.60;;;16.90;99.90;;;;;;4988223;28;20049;-83
2022/10/28 09:15:43;;;;;;;14.00;6.05;;;17.00;99.90;;;;;;4984715;28;20103;-83
2022/10/28 09:18:51;;;;;;;18.15;6.00;;;17.00;99.90;;;;;;4982411;28;20072;-83
2022/10/28 09:21:35;;;;;;;13.02;5.35;;;17.00;99.90;;;;;;5005064;28;20048;-82
2022/10/28 09:24:27;;;;;;;16.80;6.03;;;17.00;99.90;;;;;;4985481;28;20073;-84
2022/10/28 09:26:55;;;;;;;14.38;5.57;;;17.00;99.90;;;;;;4979020;28;20055;-84
2022/10/28 09:29:30;;;;;;;15.50;5.60;;;17.10;99.90;;;;;;4980271;28;20569;-82
2022/10/28 09:32:15;;;;;;;13.82;5.65;;;17.10;99.90;;;;;;4986312;28;20399;-84
2022/10/28 09:34:48;;;;;;;15.32;5.35;;;17.10;99.90;;;;;;4988132;28;20049;-84
2022/10/28 09:37:26;;;;;;;16.52;6.20;;;17.20;99.90;;;;;;4988308;28;20068;-85
2022/10/28 09:39:59;;;;;;;16.33;5.85;;;17.10;99.90;;;;;;4989910;28;20683;-84
2022/10/28 09:42:39;;;;;;;15.55;5.78;;;17.20;99.90;;;;;;4989375;28;20048;-84
2022/10/28 09:45:20;;;;;;;15.88;5.72;;;17.20;99.90;;;;;;4985685;28;20471;-83
2022/10/28 09:48:01;;;;;;;20.05;5.97;;;18.20;99.90;;;;;;4985386;28;20243;-83
2022/10/28 09:50:30;;;;;;;16.55;5.63;;;17.20;99.90;;;;;;5005771;28;20076;-83
2022/10/28 09:53:18;;;;;;;15.23;5.97;;;17.20;99.90;;;;;;4992428;28;20043;-83
2022/10/28 09:55:43;;;;;;;13.02;5.22;;;17.20;99.90;;;;;;4998761;28;20052;-83
2022/10/28 09:58:12;;;;;;;16.52;5.53;;;17.20;99.90;;;;;;4990851;28;20565;-83
2022/10/28 10:00:38;;;;;;;17.30;5.45;;;17.20;99.90;;;;;;4996180;28;20041;-83
2022/10/28 10:03:04;;;;;;;15.38;5.75;;;17.30;99.90;;;;;;4994941;28;20484;-83
2022/10/28 10:05:33;;;;;;;16.88;5.68;;;17.30;99.90;;;;;;4993924;28;20124;-83
2022/10/28 10:08:03;;;;;;;14.68;5.40;;;17.30;99.90;;;;;;4994573;28;20069;-83
2022/10/28 10:10:52;;;;;;;15.90;5.53;;;17.40;99.90;;;;;;4993450;28;20042;-83
2022/10/28 10:13:28;;;;;;;17.90;5.38;;;17.40;99.90;;;;;;5010999;28;20413;-83
2022/10/28 10:16:03;;;;;;;16.92;5.38;;;17.50;99.90;;;;;;4992515;28;20044;-84
2022/10/28 10:18:35;;;;;;;13.18;5.22;;;17.50;99.90;;;;;;5010759;28;20108;-83
2022/10/28 10:21:01;;;;;;;15.98;6.18;;;17.50;99.90;;;;;;4988483;28;20034;-85
2022/10/28 10:23:33;;;;;;;16.27;5.30;;;17.50;99.90;;;;;;4959210;28;20076;-84
2022/10/28 10:26:04;;;;;;;16.98;5.88;;;17.60;99.90;;;;;;4991817;28;20201;-86
2022/10/28 10:28:32;;;;;;;16.08;5.55;;;17.60;99.90;;;;;;4989568;28;20063;-83
2022/10/28 10:31:01;;;;;;;13.50;5.15;;;17.70;99.90;;;;;;5008876;28;20590;-83
2022/10/28 10:33:31;;;;;;;19.98;5.80;;;17.70;99.90;;;;;;4996302;28;20100;-84
2022/10/28 10:36:03;;;;;;;16.15;5.65;;;17.70;99.90;;;;;;4995471;28;20130;-85
2022/10/28 10:38:30;;;;;;;15.50;5.25;;;17.80;99.90;;;;;;5001256;28;20486;-85
2022/10/28 10:40:56;;;;;;;15.80;5.47;;;17.80;99.90;;;;;;4998647;28;20509;-84
2022/10/28 10:43:30;;;;;;;13.57;5.47;;;17.80;99.90;;;;;;4990924;28;20270;-83
2022/10/28 10:46:14;;;;;;;13.50;6.10;;;17.90;99.90;;;;;;5006226;28;20030;-84
2022/10/28 10:48:40;;;;;;;15.85;5.45;;;17.90;99.90;;;;;;4990128;28;20046;-83
2022/10/28 10:51:16;;;;;;;18.63;5.57;;;17.90;99.90;;;;;;5007971;28;20045;-84
2022/10/28 10:53:47;;;;;;;16.98;5.40;;;18.00;99.90;;;;;;4981925;28;20101;-82
2022/10/28 10:56:31;;;;;;;13.82;5.00;;;18.00;99.90;;;;;;5007362;28;20412;-83
2022/10/28 10:59:04;;;;;;;17.33;5.93;;;18.10;99.90;;;;;;4971812;28;20499;-83
2022/10/28 11:01:37;;;;;;;18.45;5.55;;;18.10;99.90;;;;;;4987397;28;20033;-83
2022/10/28 11:04:14;;;;;;;;;;;18.10;99.90;;;;;;4986232;28;20033;-83
2022/10/28 11:06:48;;;;;;;13.93;5.05;;;18.20;99.90;;;;;;4986735;28;19992;-84
2022/10/28 11:09:22;;;;;;;16.30;5.65;;;18.20;99.90;;;;;;5007271;28;20034;-84
2022/10/28 11:11:48;;;;;;;14.00;5.53;;;18.20;99.90;;;;;;5003941;28;20056;-84
2022/10/28 11:14:14;;;;;;;14.93;5.32;;;18.20;99.90;;;;;;4967926;28;20034;-85
2022/10/28 11:16:47;;;;;;;14.93;5.25;;;18.20;99.90;;;;;;4990808;28;20121;-84
2022/10/28 11:19:27;;;;;;;16.27;5.75;;;18.30;99.90;;;;;;4999468;28;20038;-84
2022/10/28 11:22:27;;;;;;;18.90;5.22;;;18.30;99.90;;;;;;5007011;28;20077;-84
2022/10/28 11:25:22;;;;;;;17.90;5.90;;;18.30;99.90;;;;;;4983812;28;20038;-84
2022/10/28 11:28:17;;;;;;;15.55;5.32;;;18.40;99.90;;;;;;4989552;28;20045;-83
2022/10/28 11:31:04;;;;;;;16.50;5.40;;;18.50;99.90;;;;;;5012878;28;20110;-85
2022/10/28 11:34:03;;;;;;;18.85;5.53;;;18.60;99.90;;;;;;5003550;28;20058;-84
2022/10/28 11:37:08;;;;;;;13.65;5.20;;;18.60;99.90;;;;;;4985280;28;20056;-84
2022/10/28 11:39:45;;;;;;;14.73;5.35;;;18.80;99.90;;;;;;4991573;28;20041;-84
2022/10/28 11:42:29;;;;;;;16.75;6.10;;;19.00;99.90;;;;;;4991108;28;20048;-85
2022/10/28 11:45:20;;;;;;;16.85;5.18;;;19.10;99.90;;;;;;4991200;28;20080;-85
2022/10/28 11:48:02;;;;;;;12.63;4.95;;;19.20;99.90;;;;;;4987584;28;20053;-85
2022/10/28 11:50:28;;;;;;;16.85;4.60;;;19.30;99.90;;;;;;5000375;28;20250;-84
2022/10/28 11:53:11;;;;;;;13.50;4.80;;;19.30;99.90;;;;;;5006872;28;20076;-85
2022/10/28 11:56:09;;;;;;;15.80;4.70;;;19.30;99.90;;;;;;4987073;28;20049;-85
2022/10/28 11:59:04;;;;;;;16.85;5.10;;;19.40;99.90;;;;;;4976707;28;20164;-84
2022/10/28 12:01:52;;;;;;;14.43;4.82;;;19.40;99.90;;;;;;4994356;28;20041;-85
2022/10/28 12:04:31;;;;;;;13.90;4.70;;;19.50;99.90;;;;;;4963679;28;20141;-85
2022/10/28 12:07:23;;;;;;;16.05;4.47;;;19.60;99.90;;;;;;4985811;28;20050;-85
2022/10/28 12:10:13;;;;;;;15.40;4.78;;;19.60;99.90;;;;;;4988583;28;20057;-84
2022/10/28 12:13:00;;;;;;;15.07;4.60;;;19.60;99.90;;;;;;4992251;28;20076;-84
2022/10/28 12:15:48;;;;;;;14.95;5.22;;;19.60;99.90;;;;;;5005793;28;20043;-86
2022/10/28 12:18:37;;;;;;;15.43;4.68;;;19.60;99.90;;;;;;4989380;28;20050;-85
2022/10/28 12:21:14;;;;;;;14.65;4.68;;;19.60;99.90;;;;;;4994576;28;20579;-85
2022/10/28 12:23:41;;;;;;;13.30;4.50;;;19.60;99.90;;;;;;5028426;28;20072;-84
2022/10/28 12:26:12;;;;;;;14.30;4.18;;;19.50;99.90;;;;;;4999955;28;20042;-85
2022/10/28 12:28:43;;;;;;;14.98;4.80;;;18.70;99.90;;;;;;4979866;28;20026;-85
2022/10/28 12:31:26;;;;;;;13.55;4.45;;;19.40;99.90;;;;;;4986355;28;20347;-85
2022/10/28 12:34:10;;;;;;;12.93;4.60;;;19.40;99.90;;;;;;4998913;28;20084;-84
2022/10/28 12:36:45;;;;;;;14.07;4.90;;;19.30;99.90;;;;;;4991106;28;20108;-84
2022/10/28 12:39:23;;;;;;;16.60;5.00;;;19.30;99.90;;;;;;5005147;28;20057;-87
2022/10/28 12:41:58;;;;;;;19.73;5.20;;;19.30;99.90;;;;;;4987055;28;20118;-87
2022/10/28 12:44:25;;;;;;;12.70;4.88;;;19.20;99.90;;;;;;4987987;28;20057;-86
2022/10/28 12:47:41;;;;;;;16.55;4.88;;;19.20;99.90;;;;;;5006996;28;20069;-86
2022/10/28 12:50:21;;;;;;;13.32;5.07;;;19.10;99.90;;;;;;4931424;28;20035;-85
2022/10/28 12:53:14;;;;;;;14.25;4.95;;;19.10;99.90;;;;;;5005790;28;20125;-86
2022/10/28 12:55:46;;;;;;;15.48;5.00;;;19.10;99.90;;;;;;5003504;28;20045;-87
2022/10/28 12:58:26;;;;;;;14.75;5.57;;;19.10;99.90;;;;;;4995572;28;20056;-84
2022/10/28 13:00:59;;;;;;;15.32;5.13;;;19.10;99.90;;;;;;4984031;28;20076;-84